createdAt,value
2019-05-04T00:05:26.516Z,99.90
2019-05-04T00:11:31.073Z,99.90
2019-05-04T00:17:35.695Z,99.90
2019-05-04T00:23:40.239Z,99.90
2019-05-04T00:29:44.803Z,99.90
2019-05-04T00:36:02.934Z,99.90
2019-05-04T00:42:07.812Z,99.90
2019-05-04T00:48:15.138Z,99.90
2019-05-04T00:54:19.871Z,99.90
2019-05-04T01:00:26.055Z,99.90
2019-05-04T01:06:30.754Z,99.90
2019-05-04T01:12:35.618Z,99.90
2019-05-04T01:18:40.315Z,99.90
2019-05-04T01:24:45.108Z,99.90
2019-05-04T01:30:49.780Z,99.90
2019-05-04T01:37:04.446Z,99.90
2019-05-04T01:43:09.175Z,99.90
2019-05-04T01:49:15.372Z,99.90
2019-05-04T01:55:20.062Z,99.90
2019-05-04T02:01:25.839Z,99.90
2019-05-04T02:07:44.255Z,99.90
2019-05-04T02:13:36.867Z,99.90
2019-05-04T02:19:41.552Z,99.90
2019-05-04T02:25:45.862Z,99.90
2019-05-04T02:31:50.414Z,99.90
2019-05-04T02:38:07.678Z,99.90
2019-05-04T02:44:02.011Z,99.90
2019-05-04T02:50:16.087Z,99.90
2019-05-04T02:56:20.515Z,99.90
2019-05-04T03:02:25.356Z,99.90
2019-05-04T03:08:34.611Z,99.90
2019-05-04T03:14:37.003Z,99.90
2019-05-04T03:20:46.284Z,99.90
2019-05-04T03:26:50.837Z,99.90
2019-05-04T03:32:58.154Z,99.90
2019-05-04T03:39:01.877Z,99.90
2019-05-04T03:45:10.019Z,99.90
2019-05-04T03:51:19.162Z,99.90
2019-05-04T03:57:24.878Z,99.90
2019-05-04T04:03:29.540Z,99.90
2019-05-04T04:09:36.819Z,99.90
2019-05-04T04:15:41.596Z,99.90
2019-05-04T04:21:46.511Z,99.90
2019-05-04T04:27:52.706Z,99.90
2019-05-04T04:34:01.317Z,99.90
2019-05-04T04:40:05.528Z,99.90
2019-05-04T04:46:10.290Z,99.90
2019-05-04T04:52:15.407Z,99.90
2019-05-04T04:58:25.805Z,99.90
2019-05-04T05:04:30.579Z,99.90
2019-05-04T05:10:35.144Z,99.90
2019-05-04T05:16:39.683Z,99.90
2019-05-04T05:22:44.239Z,99.90
2019-05-04T05:28:48.826Z,99.90
2019-05-04T05:34:55.000Z,99.90
2019-05-04T05:40:59.547Z,99.90
2019-05-04T05:47:04.922Z,99.90
2019-05-04T05:53:30.401Z,99.90
2019-05-04T05:59:42.237Z,99.90
2019-05-04T06:06:02.471Z,99.90
2019-05-04T06:12:11.151Z,99.90
2019-05-04T06:18:19.339Z,99.90
2019-05-04T06:24:26.623Z,99.90
2019-05-04T06:30:49.011Z,99.90
2019-05-04T06:36:58.239Z,99.90
2019-05-04T06:43:06.304Z,99.90
2019-05-04T06:49:11.589Z,99.90
2019-05-04T06:55:19.839Z,99.90
2019-05-04T07:01:25.213Z,99.90
2019-05-04T07:07:29.966Z,99.90
2019-05-04T07:13:34.669Z,99.90
2019-05-04T07:19:39.269Z,99.90
2019-05-04T07:25:49.460Z,99.90
2019-05-04T07:31:57.994Z,99.90
2019-05-04T07:38:04.904Z,99.90
2019-05-04T07:44:11.626Z,99.90
2019-05-04T07:50:16.346Z,99.90
2019-05-04T07:56:20.892Z,99.90
2019-05-04T08:02:25.475Z,99.90
2019-05-04T08:08:32.758Z,99.90
2019-05-04T08:14:45.014Z,99.90
2019-05-04T08:20:45.318Z,99.90
2019-05-04T08:26:49.927Z,99.90
2019-05-04T08:32:54.968Z,99.90
2019-05-04T08:38:59.736Z,99.90
2019-05-04T08:45:05.406Z,99.90
2019-05-04T08:51:20.544Z,99.90
2019-05-04T08:57:41.211Z,99.90
2019-05-04T09:03:40.303Z,99.90
2019-05-04T09:09:45.266Z,99.90
2019-05-04T09:15:55.329Z,99.90
2019-05-04T09:22:17.366Z,99.90
2019-05-04T09:28:10.944Z,99.90
2019-05-04T09:34:09.064Z,99.90
2019-05-04T09:40:14.822Z,99.90
2019-05-04T09:46:19.435Z,99.90
2019-05-04T09:52:35.175Z,99.90
2019-05-04T09:58:39.827Z,99.90
2019-05-04T10:04:44.497Z,99.90
2019-05-04T10:10:50.866Z,99.90
2019-05-04T10:16:55.246Z,99.90
2019-05-04T10:22:59.934Z,99.90
2019-05-04T10:29:06.501Z,99.90
2019-05-04T10:35:11.191Z,99.90
2019-05-04T10:41:15.778Z,99.90
2019-05-04T10:47:20.326Z,99.90
2019-05-04T10:53:24.963Z,99.90
2019-05-04T10:59:29.512Z,99.90
2019-05-04T11:05:35.105Z,99.90
2019-05-04T11:11:39.845Z,99.90
2019-05-04T11:17:44.613Z,99.90
2019-05-04T11:23:49.238Z,99.90
2019-05-04T11:29:53.868Z,99.90
2019-05-04T11:35:58.444Z,99.90
2019-05-04T11:42:04.949Z,99.90
2019-05-04T11:48:09.355Z,99.90
2019-05-04T11:54:15.070Z,99.90
2019-05-04T12:00:32.373Z,99.90
2019-05-04T12:06:45.533Z,99.90
2019-05-04T12:12:50.093Z,99.90
2019-05-04T12:18:55.027Z,99.90
2019-05-04T12:24:59.874Z,99.90
2019-05-04T12:31:05.560Z,99.90
2019-05-04T12:37:10.392Z,99.90
2019-05-04T12:43:16.294Z,99.90
2019-05-04T12:49:21.053Z,99.90
2019-05-04T12:55:25.668Z,99.90
2019-05-04T13:01:30.217Z,99.90
2019-05-04T13:07:35.228Z,99.90
2019-05-04T13:13:40.963Z,99.90
2019-05-04T13:19:45.567Z,99.90
2019-05-04T13:25:50.124Z,99.90
2019-05-04T13:31:55.081Z,99.90
2019-05-04T13:37:59.704Z,99.90
2019-05-04T13:44:04.898Z,99.90
2019-05-04T13:50:09.762Z,99.90
2019-05-04T13:56:16.116Z,99.90
2019-05-04T14:02:40.540Z,99.90
2019-05-04T14:08:45.170Z,99.90
2019-05-04T14:14:49.710Z,96.00
2019-05-04T14:20:55.017Z,93.90
2019-05-04T14:26:59.794Z,84.90
2019-05-04T14:33:05.328Z,90.70
2019-05-04T14:39:10.298Z,95.60
2019-05-04T14:45:16.722Z,99.90
2019-05-04T14:51:21.367Z,99.90
2019-05-04T14:57:25.934Z,99.90
2019-05-04T15:03:30.519Z,99.90
2019-05-04T15:09:35.066Z,99.90
2019-05-04T15:15:39.787Z,99.90
2019-05-04T15:21:44.710Z,99.90
2019-05-04T15:27:49.536Z,99.90
2019-05-04T15:33:54.696Z,99.90
2019-05-04T15:39:59.387Z,99.90
2019-05-04T15:46:04.085Z,99.90
2019-05-04T15:52:14.604Z,99.90
2019-05-04T15:58:25.071Z,99.90
2019-05-04T16:04:29.681Z,99.90
2019-05-04T16:10:34.673Z,97.00
2019-05-04T16:16:39.320Z,93.70
2019-05-04T16:22:44.519Z,93.90
2019-05-04T16:28:49.192Z,92.40
2019-05-04T16:34:54.980Z,90.40
2019-05-04T16:40:59.655Z,88.50
2019-05-04T16:47:04.573Z,72.50
2019-05-04T16:53:19.761Z,77.90
2019-05-04T16:59:25.369Z,85.20
2019-05-04T17:05:30.094Z,86.00
2019-05-04T17:11:35.233Z,89.80
2019-05-04T17:17:39.980Z,92.50
2019-05-04T17:23:47.176Z,90.70
2019-05-04T17:29:51.221Z,97.10
2019-05-04T17:35:56.083Z,99.90
2019-05-04T17:42:04.929Z,98.60
2019-05-04T17:48:08.931Z,99.90
2019-05-04T17:54:15.272Z,98.90
2019-05-04T18:00:32.041Z,99.90
2019-05-04T18:06:36.717Z,99.90
2019-05-04T18:12:45.906Z,99.90
2019-05-04T18:18:54.236Z,99.90
2019-05-04T18:24:58.454Z,99.90
2019-05-04T18:31:04.669Z,99.90
2019-05-04T18:37:09.339Z,99.90
2019-05-04T18:43:24.787Z,99.90
2019-05-04T18:49:31.175Z,99.90
2019-05-04T18:55:35.735Z,99.90
2019-05-04T19:01:40.297Z,99.90
2019-05-04T19:08:01.724Z,99.90
2019-05-04T19:14:01.525Z,99.90
2019-05-04T19:20:07.899Z,99.90
2019-05-04T19:26:14.729Z,99.90
2019-05-04T19:32:19.127Z,99.90
2019-05-04T19:38:24.207Z,99.90
2019-05-04T19:44:30.544Z,99.90
2019-05-04T19:50:35.674Z,99.90
2019-05-04T19:56:40.297Z,99.90
2019-05-04T20:02:44.981Z,99.90
2019-05-04T20:09:00.133Z,99.90
2019-05-04T20:15:17.498Z,99.90
2019-05-04T20:21:15.460Z,99.90
2019-05-04T20:27:20.214Z,99.90
2019-05-04T20:33:24.857Z,99.90
2019-05-04T20:39:29.394Z,99.90
2019-05-04T20:45:35.604Z,99.90
2019-05-04T20:51:40.680Z,99.90
2019-05-04T20:57:45.446Z,99.90
2019-05-04T21:04:00.469Z,99.90
2019-05-04T21:10:07.999Z,99.90
2019-05-04T21:16:14.744Z,99.90
2019-05-04T21:22:18.885Z,99.90
2019-05-04T21:28:25.157Z,99.90
2019-05-04T21:34:29.900Z,99.90
2019-05-04T21:40:35.102Z,99.90
2019-05-04T21:46:44.485Z,99.90
2019-05-04T21:52:49.127Z,99.90
2019-05-04T21:58:55.076Z,99.90
2019-05-04T22:04:59.988Z,99.90
2019-05-04T22:11:04.596Z,99.90
2019-05-04T22:17:10.933Z,99.90
2019-05-04T22:23:15.485Z,99.90
2019-05-04T22:29:20.107Z,99.90
2019-05-04T22:35:24.746Z,99.90
2019-05-04T22:41:29.381Z,99.90
2019-05-04T22:47:34.439Z,99.90
2019-05-04T22:53:43.770Z,99.90
2019-05-04T22:59:49.946Z,99.90
2019-05-04T23:05:56.302Z,99.90
2019-05-04T23:12:01.015Z,99.90
2019-05-04T23:18:05.703Z,99.90
2019-05-04T23:24:10.390Z,99.90
2019-05-04T23:30:16.268Z,99.90
2019-05-04T23:36:21.103Z,99.90
2019-05-04T23:42:25.748Z,99.90
2019-05-04T23:48:30.303Z,99.90
2019-05-04T23:54:35.209Z,99.90
